createdAt,value
2023-05-19T00:01:56.962Z,48.44
2023-05-19T00:04:31.433Z,48.45
2023-05-19T00:07:05.648Z,48.51
2023-05-19T00:09:38.660Z,48.62
2023-05-19T00:12:12.237Z,48.62
2023-05-19T00:14:45.154Z,48.69
2023-05-19T00:17:18.121Z,48.79
2023-05-19T00:19:52.574Z,48.66
2023-05-19T00:22:25.959Z,48.83
2023-05-19T00:24:58.666Z,48.84
2023-05-19T00:27:31.374Z,48.87
2023-05-19T00:30:04.157Z,48.95
2023-05-19T00:32:36.960Z,48.99
2023-05-19T00:35:11.519Z,49.08
2023-05-19T00:37:44.332Z,49.08
2023-05-19T00:40:17.115Z,49.10
2023-05-19T00:42:49.794Z,49.12
2023-05-19T00:45:22.999Z,49.05
2023-05-19T00:47:55.949Z,49.20
2023-05-19T00:50:30.321Z,49.41
2023-05-19T00:53:03.417Z,49.48
2023-05-19T00:55:37.851Z,49.54
2023-05-19T00:58:11.100Z,49.37
2023-05-19T01:00:44.393Z,49.58
2023-05-19T01:03:20.759Z,49.52
2023-05-19T01:05:55.151Z,49.54
2023-05-19T01:08:28.191Z,49.64
2023-05-19T01:11:00.962Z,49.77
2023-05-19T01:13:34.389Z,49.79
2023-05-19T01:16:12.483Z,49.64
2023-05-19T01:18:47.880Z,49.52
2023-05-19T01:21:37.405Z,49.50
2023-05-19T01:24:24.250Z,49.57
2023-05-19T01:27:11.094Z,49.69
2023-05-19T01:29:54.357Z,49.61
2023-05-19T01:32:29.968Z,49.68
2023-05-19T01:35:03.673Z,49.64
2023-05-19T01:37:38.373Z,49.47
2023-05-19T01:40:11.395Z,49.54
2023-05-19T01:42:45.544Z,49.49
2023-05-19T01:45:18.871Z,49.43
2023-05-19T01:47:54.369Z,49.55
2023-05-19T01:50:27.262Z,49.55
2023-05-19T01:53:00.694Z,49.50
2023-05-19T01:55:33.566Z,49.41
2023-05-19T01:58:11.662Z,49.37
2023-05-19T02:00:51.170Z,49.45
2023-05-19T02:03:34.088Z,49.35
2023-05-19T02:06:13.908Z,49.34
2023-05-19T02:08:51.682Z,49.49
2023-05-19T02:11:27.999Z,49.52
2023-05-19T02:14:02.415Z,49.60
2023-05-19T02:16:36.140Z,49.53
2023-05-19T02:19:20.915Z,49.48
2023-05-19T02:21:53.798Z,49.48
2023-05-19T02:24:27.747Z,49.53
2023-05-19T02:27:00.592Z,49.53
2023-05-19T02:29:33.292Z,49.48
2023-05-19T02:32:07.164Z,49.67
2023-05-19T02:34:42.298Z,49.49
2023-05-19T02:37:15.472Z,49.44
2023-05-19T02:39:48.137Z,49.55
2023-05-19T02:42:20.812Z,49.72
2023-05-19T02:44:55.342Z,49.74
2023-05-19T02:47:28.089Z,49.74
2023-05-19T02:50:02.130Z,49.53
2023-05-19T02:52:35.984Z,49.57
2023-05-19T02:55:09.105Z,49.54
2023-05-19T02:57:42.391Z,49.56
2023-05-19T03:00:15.963Z,49.47
2023-05-19T03:02:50.195Z,49.59
2023-05-19T03:05:24.685Z,49.56
2023-05-19T03:07:57.375Z,49.63
2023-05-19T03:10:30.160Z,49.47
2023-05-19T03:13:03.049Z,49.46
2023-05-19T03:15:36.625Z,49.50
2023-05-19T03:18:09.806Z,49.53
2023-05-19T03:20:44.727Z,49.60
2023-05-19T03:23:17.430Z,49.41
2023-05-19T03:25:50.912Z,49.57
2023-05-19T03:28:24.334Z,49.55
2023-05-19T03:30:57.012Z,49.54
2023-05-19T03:33:33.730Z,49.59
2023-05-19T03:36:08.731Z,49.54
2023-05-19T03:38:44.453Z,49.63
2023-05-19T03:41:17.151Z,49.57
2023-05-19T03:43:49.984Z,49.58
2023-05-19T03:46:22.833Z,49.47
2023-05-19T03:49:04.429Z,49.56
2023-05-19T03:52:07.447Z,49.58
2023-05-19T03:54:54.818Z,49.67
2023-05-19T03:57:27.700Z,49.77
2023-05-19T04:00:00.409Z,49.69
2023-05-19T04:02:33.185Z,49.55
2023-05-19T04:05:06.281Z,49.72
2023-05-19T04:07:40.393Z,49.63
2023-05-19T04:10:13.612Z,49.54
2023-05-19T04:12:48.779Z,49.61
2023-05-19T04:15:21.932Z,49.77
2023-05-19T04:17:54.686Z,49.55
2023-05-19T04:20:27.437Z,49.62
2023-05-19T04:23:01.487Z,49.58
2023-05-19T04:25:36.075Z,49.67
2023-05-19T04:28:08.963Z,49.73
2023-05-19T04:30:46.708Z,49.59
2023-05-19T04:33:20.134Z,49.68
2023-05-19T04:35:53.032Z,49.58
2023-05-19T04:38:29.987Z,49.51
2023-05-19T04:41:02.870Z,49.45
2023-05-19T04:43:36.544Z,49.45
2023-05-19T04:46:11.615Z,49.54
2023-05-19T04:48:46.652Z,49.20
2023-05-19T04:51:19.898Z,49.51
2023-05-19T04:53:54.244Z,49.32
2023-05-19T04:56:27.454Z,49.34
2023-05-19T04:59:00.710Z,49.36
2023-05-19T05:01:34.007Z,49.43
2023-05-19T05:04:07.519Z,49.45
2023-05-19T05:06:42.475Z,49.35
2023-05-19T05:09:16.829Z,49.26
2023-05-19T05:11:49.971Z,49.30
2023-05-19T05:14:23.183Z,49.22
2023-05-19T05:16:56.892Z,49.09
2023-05-19T05:19:31.141Z,49.27
2023-05-19T05:22:04.509Z,49.06
2023-05-19T05:24:39.109Z,49.00
2023-05-19T05:27:11.914Z,48.95
2023-05-19T05:29:45.593Z,48.88
2023-05-19T05:32:18.833Z,48.91
2023-05-19T05:34:51.998Z,48.87
2023-05-19T05:37:24.711Z,48.93
2023-05-19T05:39:59.368Z,48.99
2023-05-19T05:42:32.187Z,48.79
2023-05-19T05:45:05.230Z,48.84
2023-05-19T05:47:39.740Z,48.82
2023-05-19T05:50:14.265Z,48.89
2023-05-19T05:52:48.292Z,48.65
2023-05-19T05:55:25.044Z,48.70
2023-05-19T05:57:58.698Z,48.65
2023-05-19T06:00:32.063Z,48.57
2023-05-19T06:03:05.903Z,48.53
2023-05-19T06:05:39.372Z,48.51
2023-05-19T06:08:12.370Z,48.39
2023-05-19T06:10:51.997Z,48.52
2023-05-19T06:13:26.205Z,48.47
2023-05-19T06:16:01.232Z,48.61
2023-05-19T06:18:43.696Z,48.65
2023-05-19T06:21:17.669Z,48.44
2023-05-19T06:23:50.405Z,48.34
2023-05-19T06:26:25.429Z,48.52
2023-05-19T06:28:58.573Z,48.57
2023-05-19T06:31:31.471Z,48.64
2023-05-19T06:34:12.517Z,48.69
2023-05-19T06:36:45.411Z,48.74
2023-05-19T06:39:19.279Z,48.77
2023-05-19T06:41:53.342Z,48.87
2023-05-19T06:44:51.837Z,48.89
2023-05-19T06:47:28.207Z,48.73
2023-05-19T06:50:01.049Z,48.85
2023-05-19T06:52:37.246Z,48.81
2023-05-19T06:55:10.148Z,48.88
2023-05-19T06:57:45.840Z,48.72
2023-05-19T07:00:31.779Z,48.75
2023-05-19T07:03:04.882Z,48.81
2023-05-19T07:05:37.805Z,49.02
2023-05-19T07:08:11.096Z,48.82
2023-05-19T07:10:43.919Z,48.92
2023-05-19T07:13:20.633Z,48.80
2023-05-19T07:15:55.979Z,48.78
2023-05-19T07:18:31.809Z,48.78
2023-05-19T07:21:04.860Z,48.77
2023-05-19T07:23:37.655Z,48.85
2023-05-19T07:26:10.457Z,48.71
2023-05-19T07:28:44.556Z,48.59
2023-05-19T07:31:17.634Z,48.81
2023-05-19T07:33:52.282Z,48.87
2023-05-19T07:36:27.255Z,48.89
2023-05-19T07:39:00.136Z,48.91
2023-05-19T07:41:34.449Z,48.90
2023-05-19T07:44:10.908Z,49.00
2023-05-19T07:46:43.727Z,49.01
2023-05-19T07:49:16.497Z,49.16
2023-05-19T07:51:49.237Z,49.15
2023-05-19T07:54:22.019Z,49.37
2023-05-19T07:56:54.681Z,49.43
2023-05-19T07:59:28.757Z,49.47
2023-05-19T08:02:01.669Z,49.28
2023-05-19T08:04:34.452Z,49.29
2023-05-19T08:07:07.155Z,49.27
2023-05-19T08:09:39.909Z,49.46
2023-05-19T08:12:12.635Z,49.59
2023-05-19T08:14:46.723Z,49.67
2023-05-19T08:17:21.469Z,49.60
2023-05-19T08:19:54.534Z,49.61
2023-05-19T08:22:27.303Z,49.49
2023-05-19T08:25:00.068Z,49.54
2023-05-19T08:27:35.653Z,49.52
2023-05-19T08:30:10.655Z,49.26
2023-05-19T08:32:43.392Z,49.20
2023-05-19T08:35:16.349Z,49.35
2023-05-19T08:37:49.094Z,49.05
2023-05-19T08:40:22.115Z,49.03
2023-05-19T08:42:55.128Z,49.03
2023-05-19T08:45:29.946Z,49.08
2023-05-19T08:48:04.314Z,49.05
2023-05-19T08:50:40.342Z,49.04
2023-05-19T08:53:25.026Z,49.06
2023-05-19T08:56:10.605Z,49.04
2023-05-19T08:58:44.292Z,49.04
2023-05-19T09:01:18.979Z,48.99
2023-05-19T09:03:53.010Z,49.06
2023-05-19T09:06:26.492Z,49.06
2023-05-19T09:08:59.414Z,48.92
2023-05-19T09:11:32.433Z,48.92
2023-05-19T09:14:05.369Z,49.00
2023-05-19T09:16:40.162Z,49.00
2023-05-19T09:19:15.442Z,49.11
2023-05-19T09:21:58.682Z,49.04
2023-05-19T09:24:31.554Z,49.20
2023-05-19T09:27:04.394Z,49.06
2023-05-19T09:29:37.176Z,49.27
2023-05-19T09:32:11.342Z,49.28
2023-05-19T09:34:44.044Z,49.27
2023-05-19T09:37:16.777Z,49.29
2023-05-19T09:39:52.115Z,49.35
2023-05-19T09:42:29.786Z,49.35
2023-05-19T09:45:05.924Z,49.50
2023-05-19T09:47:41.305Z,49.43
2023-05-19T09:50:14.255Z,49.26
2023-05-19T09:52:47.571Z,49.48
2023-05-19T09:55:23.226Z,49.43
2023-05-19T09:57:56.644Z,49.38
2023-05-19T10:00:31.178Z,49.35
2023-05-19T10:03:06.280Z,49.43
2023-05-19T10:05:39.597Z,49.35
2023-05-19T10:08:13.181Z,49.48
2023-05-19T10:10:47.266Z,49.52
2023-05-19T10:13:20.637Z,49.55
2023-05-19T10:15:58.955Z,49.55
2023-05-19T10:18:34.487Z,49.60
2023-05-19T10:21:08.869Z,49.53
2023-05-19T10:23:41.921Z,49.61
2023-05-19T10:26:15.123Z,49.73
2023-05-19T10:28:49.169Z,49.63
2023-05-19T10:31:22.775Z,49.52
2023-05-19T10:34:07.158Z,49.50
2023-05-19T10:36:47.351Z,49.39
2023-05-19T10:39:29.323Z,49.14
2023-05-19T10:42:05.519Z,49.36
2023-05-19T10:44:47.484Z,49.09
2023-05-19T10:47:24.103Z,49.26
2023-05-19T10:50:01.341Z,49.22
2023-05-19T10:52:37.965Z,49.13
2023-05-19T10:55:17.846Z,49.32
2023-05-19T10:57:56.878Z,49.33
2023-05-19T11:00:31.320Z,49.24
2023-05-19T11:03:13.942Z,49.33
2023-05-19T11:05:50.965Z,49.37
2023-05-19T11:08:33.080Z,49.10
2023-05-19T11:11:13.851Z,49.21
2023-05-19T11:13:48.360Z,49.50
2023-05-19T11:16:27.513Z,49.44
2023-05-19T11:19:00.597Z,49.45
2023-05-19T11:21:44.647Z,49.50
2023-05-19T11:24:32.256Z,49.34
2023-05-19T11:27:27.477Z,49.45
2023-05-19T11:30:00.675Z,49.25
2023-05-19T11:32:34.962Z,49.38
2023-05-19T11:35:08.150Z,49.34
2023-05-19T11:37:43.493Z,49.19
2023-05-19T11:40:16.526Z,49.00
2023-05-19T11:42:49.234Z,49.09
2023-05-19T11:45:25.686Z,48.86
2023-05-19T11:48:02.500Z,48.79
2023-05-19T11:50:38.336Z,48.73
2023-05-19T11:53:14.667Z,48.80
2023-05-19T11:55:48.397Z,48.87
2023-05-19T11:58:26.903Z,48.87
2023-05-19T12:01:04.564Z,48.99
2023-05-19T12:03:37.500Z,48.90
2023-05-19T12:06:10.371Z,48.85
2023-05-19T12:08:44.490Z,49.11
2023-05-19T12:11:18.202Z,48.97
2023-05-19T12:13:54.686Z,49.18
2023-05-19T12:16:33.786Z,49.24
2023-05-19T12:19:06.758Z,49.06
2023-05-19T12:21:39.589Z,48.95
2023-05-19T12:24:13.868Z,49.03
2023-05-19T12:26:47.214Z,49.18
2023-05-19T12:29:19.916Z,48.89
2023-05-19T12:31:52.733Z,48.79
2023-05-19T12:34:25.693Z,48.99
2023-05-19T12:36:58.529Z,49.01
2023-05-19T12:39:32.637Z,48.99
2023-05-19T12:42:08.509Z,48.60
2023-05-19T12:44:46.644Z,48.58
2023-05-19T12:47:21.108Z,48.88
2023-05-19T12:49:57.974Z,48.95
2023-05-19T12:52:31.252Z,48.72
2023-05-19T12:55:06.952Z,48.95
2023-05-19T12:57:40.694Z,48.81
2023-05-19T13:00:17.970Z,49.11
2023-05-19T13:02:58.315Z,48.98
2023-05-19T13:05:33.691Z,49.18
2023-05-19T13:08:09.700Z,49.30
2023-05-19T13:10:44.724Z,49.25
2023-05-19T13:13:17.625Z,49.38
2023-05-19T13:15:50.382Z,49.29
2023-05-19T13:18:23.175Z,49.19
2023-05-19T13:20:56.103Z,49.34
2023-05-19T13:23:28.898Z,49.20
2023-05-19T13:26:04.990Z,49.29
2023-05-19T13:28:37.820Z,49.25
2023-05-19T13:31:10.633Z,49.03
2023-05-19T13:33:43.439Z,49.15
2023-05-19T13:36:16.249Z,48.99
2023-05-19T13:38:49.037Z,49.14
2023-05-19T13:41:26.127Z,49.08
2023-05-19T13:43:59.401Z,49.07
2023-05-19T13:46:43.958Z,49.22
2023-05-19T13:49:19.594Z,49.20
2023-05-19T13:51:52.537Z,49.07
2023-05-19T13:54:25.282Z,49.16
2023-05-19T13:56:59.384Z,49.00
2023-05-19T13:59:32.163Z,49.03
2023-05-19T14:02:05.529Z,48.99
2023-05-19T14:04:38.985Z,49.09
2023-05-19T14:07:11.740Z,49.12
2023-05-19T14:09:44.435Z,48.92
2023-05-19T14:12:19.332Z,49.36
2023-05-19T14:14:52.968Z,49.37
2023-05-19T14:17:28.118Z,49.34
2023-05-19T14:20:01.244Z,49.38
2023-05-19T14:22:34.039Z,49.31
2023-05-19T14:25:07.198Z,49.54
2023-05-19T14:27:41.422Z,49.27
2023-05-19T14:30:14.389Z,49.44
2023-05-19T14:32:47.137Z,49.35
2023-05-19T14:35:19.891Z,49.27
2023-05-19T14:37:52.692Z,49.16
2023-05-19T14:40:25.396Z,49.14
2023-05-19T14:42:59.467Z,49.30
2023-05-19T14:45:32.202Z,49.34
2023-05-19T14:48:05.086Z,49.12
2023-05-19T14:50:37.999Z,49.04
2023-05-19T14:53:10.781Z,49.25
2023-05-19T14:55:43.637Z,49.40
2023-05-19T14:58:28.262Z,49.49
2023-05-19T15:01:01.791Z,49.48
2023-05-19T15:03:34.535Z,49.49
2023-05-19T15:06:09.272Z,49.59
2023-05-19T15:08:42.030Z,49.53
2023-05-19T15:11:14.761Z,49.54
2023-05-19T15:13:48.853Z,49.19
2023-05-19T15:16:21.565Z,49.39
2023-05-19T15:18:54.441Z,49.49
2023-05-19T15:21:27.266Z,49.33
2023-05-19T15:23:59.939Z,49.42
2023-05-19T15:26:32.755Z,49.30
2023-05-19T15:29:07.042Z,49.36
2023-05-19T15:31:39.732Z,49.56
2023-05-19T15:34:12.477Z,49.48
2023-05-19T15:36:45.192Z,49.28
2023-05-19T15:39:17.942Z,49.25
2023-05-19T15:41:51.194Z,49.53
2023-05-19T15:44:26.599Z,49.49
2023-05-19T15:47:00.981Z,49.34
2023-05-19T15:49:33.660Z,49.62
2023-05-19T15:52:06.649Z,49.61
2023-05-19T15:54:42.164Z,49.79
2023-05-19T15:57:14.890Z,49.70
2023-05-19T15:59:48.955Z,49.82
2023-05-19T16:02:22.304Z,49.97
2023-05-19T16:04:54.971Z,49.97
2023-05-19T16:07:27.844Z,49.88
2023-05-19T16:10:00.587Z,49.69
2023-05-19T16:12:33.759Z,49.63
2023-05-19T16:15:08.570Z,49.74
2023-05-19T16:17:41.411Z,49.75
2023-05-19T16:20:14.306Z,49.61
2023-05-19T16:22:47.045Z,49.54
2023-05-19T16:25:20.136Z,49.63
2023-05-19T16:27:52.790Z,49.76
2023-05-19T16:30:28.038Z,49.79
2023-05-19T16:33:00.880Z,49.54
2023-05-19T16:35:33.762Z,49.67
2023-05-19T16:38:06.456Z,49.70
2023-05-19T16:40:39.203Z,49.76
2023-05-19T16:43:11.958Z,49.84
2023-05-19T16:45:46.128Z,49.71
2023-05-19T16:48:18.953Z,49.74
2023-05-19T16:50:51.734Z,49.87
2023-05-19T16:53:24.554Z,49.77
2023-05-19T16:55:59.060Z,49.92
2023-05-19T16:58:31.855Z,49.92
2023-05-19T17:01:06.192Z,49.78
2023-05-19T17:03:38.978Z,49.96
2023-05-19T17:06:11.751Z,49.99
2023-05-19T17:08:44.470Z,50.03
2023-05-19T17:11:17.196Z,49.94
2023-05-19T17:13:50.087Z,50.05
2023-05-19T17:16:24.584Z,50.10
2023-05-19T17:18:57.433Z,50.03
2023-05-19T17:21:30.490Z,50.08
2023-05-19T17:24:03.381Z,50.14
2023-05-19T17:26:36.092Z,50.19
2023-05-19T17:29:09.343Z,50.20
2023-05-19T17:31:43.928Z,50.07
2023-05-19T17:34:16.858Z,50.21
2023-05-19T17:36:50.631Z,50.21
2023-05-19T17:39:23.642Z,50.21
2023-05-19T17:41:56.445Z,50.22
2023-05-19T17:44:29.145Z,50.25
2023-05-19T17:47:03.574Z,50.29
2023-05-19T17:49:36.302Z,50.16
2023-05-19T17:52:09.618Z,50.24
2023-05-19T17:54:42.510Z,50.27
2023-05-19T17:57:16.928Z,50.29
2023-05-19T17:59:49.895Z,50.27
2023-05-19T18:02:25.424Z,50.12
2023-05-19T18:05:01.891Z,50.38
2023-05-19T18:07:38.842Z,50.10
2023-05-19T18:10:12.434Z,50.37
2023-05-19T18:12:45.129Z,50.49
2023-05-19T18:15:19.834Z,50.50
2023-05-19T18:17:54.023Z,50.32
2023-05-19T18:20:26.804Z,50.41
2023-05-19T18:22:59.614Z,50.41
2023-05-19T18:25:32.459Z,50.54
2023-05-19T18:28:05.327Z,50.51
2023-05-19T18:30:38.048Z,50.29
2023-05-19T18:33:12.527Z,50.54
2023-05-19T18:35:45.314Z,50.48
2023-05-19T18:38:18.276Z,50.62
2023-05-19T18:40:50.966Z,50.61
2023-05-19T18:43:23.758Z,50.62
2023-05-19T18:45:56.884Z,50.57
2023-05-19T18:48:32.075Z,50.70
2023-05-19T18:51:05.022Z,50.61
2023-05-19T18:53:38.164Z,50.76
2023-05-19T18:56:11.976Z,50.60
2023-05-19T18:58:44.715Z,50.50
2023-05-19T19:01:17.506Z,50.61
2023-05-19T19:03:51.805Z,50.75
2023-05-19T19:06:24.504Z,50.53
2023-05-19T19:08:57.353Z,50.70
2023-05-19T19:11:30.113Z,50.54
2023-05-19T19:14:02.921Z,50.64
2023-05-19T19:16:35.778Z,50.72
2023-05-19T19:19:10.177Z,50.59
2023-05-19T19:21:43.179Z,50.75
2023-05-19T19:24:16.096Z,50.59
2023-05-19T19:26:48.769Z,50.67
2023-05-19T19:29:21.958Z,50.83
2023-05-19T19:31:54.950Z,50.77
2023-05-19T19:34:29.082Z,50.75
2023-05-19T19:37:01.865Z,50.75
2023-05-19T19:39:34.791Z,50.81
2023-05-19T19:42:07.742Z,50.74
2023-05-19T19:44:40.512Z,50.82
2023-05-19T19:47:13.280Z,50.70
2023-05-19T19:49:49.114Z,50.90
2023-05-19T19:52:21.805Z,50.81
2023-05-19T19:54:54.577Z,50.71
2023-05-19T19:57:29.169Z,50.83
2023-05-19T20:00:07.798Z,50.75
2023-05-19T20:02:55.358Z,50.86
2023-05-19T20:05:34.920Z,50.80
2023-05-19T20:08:07.819Z,51.01
2023-05-19T20:10:40.519Z,51.00
2023-05-19T20:13:13.400Z,50.93
2023-05-19T20:15:46.894Z,51.03
2023-05-19T20:18:19.693Z,50.94
2023-05-19T20:20:53.942Z,51.08
2023-05-19T20:23:26.654Z,51.00
2023-05-19T20:26:12.054Z,50.97
2023-05-19T20:28:45.901Z,51.02
2023-05-19T20:31:18.601Z,51.09
2023-05-19T20:33:51.400Z,50.97
2023-05-19T20:36:25.842Z,51.05
2023-05-19T20:38:58.581Z,51.03
2023-05-19T20:41:31.586Z,51.06
2023-05-19T20:44:04.488Z,50.88
2023-05-19T20:46:37.238Z,51.16
2023-05-19T20:49:10.036Z,51.10
2023-05-19T20:51:44.130Z,51.10
2023-05-19T20:54:16.960Z,50.98
2023-05-19T20:56:49.826Z,51.00
2023-05-19T20:59:24.269Z,50.95
2023-05-19T21:01:57.238Z,51.08
2023-05-19T21:04:30.180Z,51.16
2023-05-19T21:07:04.586Z,50.96
2023-05-19T21:09:37.343Z,51.02
2023-05-19T21:12:10.167Z,51.18
2023-05-19T21:14:42.910Z,51.07
2023-05-19T21:17:18.822Z,50.96
2023-05-19T21:19:56.361Z,51.04
2023-05-19T21:22:30.469Z,51.04
2023-05-19T21:25:03.542Z,51.03
2023-05-19T21:27:36.588Z,51.18
2023-05-19T21:30:09.825Z,51.19
2023-05-19T21:32:42.590Z,51.25
2023-05-19T21:35:15.357Z,51.18
2023-05-19T21:37:49.502Z,51.27
2023-05-19T21:40:22.236Z,51.14
2023-05-19T21:42:54.946Z,51.25
2023-05-19T21:45:27.677Z,51.13
2023-05-19T21:48:00.458Z,51.01
2023-05-19T21:50:36.611Z,51.26
2023-05-19T21:53:10.769Z,51.26
2023-05-19T21:55:44.378Z,51.36
2023-05-19T21:58:17.229Z,51.05
2023-05-19T22:00:50.765Z,51.15
2023-05-19T22:03:23.721Z,51.13
2023-05-19T22:05:56.788Z,51.06
2023-05-19T22:08:30.905Z,51.07
2023-05-19T22:11:03.664Z,51.17
2023-05-19T22:13:37.521Z,51.20
2023-05-19T22:16:10.256Z,51.33
2023-05-19T22:18:43.332Z,51.30
2023-05-19T22:21:16.049Z,51.29
2023-05-19T22:23:50.101Z,51.27
2023-05-19T22:26:23.008Z,51.19
2023-05-19T22:28:56.069Z,51.32
2023-05-19T22:31:29.759Z,51.20
2023-05-19T22:34:02.434Z,51.31
2023-05-19T22:36:35.166Z,51.18
2023-05-19T22:39:09.255Z,51.34
2023-05-19T22:41:42.069Z,51.30
2023-05-19T22:44:16.431Z,51.26
2023-05-19T22:46:49.332Z,51.13
2023-05-19T22:49:22.887Z,51.29
2023-05-19T22:51:55.625Z,51.16
2023-05-19T22:54:29.681Z,51.32
2023-05-19T22:57:03.361Z,51.24
2023-05-19T22:59:38.229Z,51.40
2023-05-19T23:02:10.921Z,51.56
2023-05-19T23:04:43.648Z,51.42
2023-05-19T23:07:16.312Z,51.49
2023-05-19T23:09:50.493Z,51.46
2023-05-19T23:12:23.292Z,51.42
2023-05-19T23:14:56.022Z,51.32
2023-05-19T23:17:28.787Z,51.35
2023-05-19T23:20:01.477Z,51.37
2023-05-19T23:22:34.132Z,51.40
2023-05-19T23:25:08.765Z,51.54
2023-05-19T23:27:41.728Z,51.45
2023-05-19T23:30:14.424Z,51.58
2023-05-19T23:32:47.321Z,51.56
2023-05-19T23:35:20.610Z,51.50
2023-05-19T23:37:54.034Z,51.43
2023-05-19T23:40:28.155Z,51.57
2023-05-19T23:43:00.827Z,51.59
2023-05-19T23:45:33.769Z,51.61
2023-05-19T23:48:08.883Z,51.69
2023-05-19T23:50:41.830Z,51.48
2023-05-19T23:53:14.600Z,51.52
2023-05-19T23:55:48.671Z,51.78
2023-05-19T23:58:23.297Z,51.53
